Time;durP1;ratioP1;P1;durP2;ratioP2;P2;SDS_P1;SDS_P2;PMS_P1;PMS_P2;Temp;Humidity;BMP_temperature;BMP_pressure;BME280_temperature;BME280_humidity;BME280_pressure;Samples;Min_cycle;Max_cycle;Signal;HPM_P1;HPM_P2
2021/07/11 00:00:50;;;;;;;39.50;26.35;;;;;;;;;;5072986;28;38307;-76
2021/07/11 00:03:16;;;;;;;45.35;29.63;;;;;;;;;;5057760;28;39667;-77
2021/07/11 00:05:43;;;;;;;44.28;29.60;;;;;;;;;;5060699;28;38083;-77
2021/07/11 00:08:09;;;;;;;46.85;30.60;;;;;;;;;;5074832;28;38465;-77
2021/07/11 00:10:35;;;;;;;52.58;33.63;;;;;;;;;;5053952;28;36557;-77
2021/07/11 00:13:02;;;;;;;48.75;31.45;;;;;;;;;;5066419;28;39275;-77
2021/07/11 00:15:28;;;;;;;53.72;34.78;;;;;;;;;;5051862;28;38693;-77
2021/07/11 00:17:55;;;;;;;48.85;32.67;;;;;;;;;;5052226;28;39630;-77
2021/07/11 00:20:22;;;;;;;51.40;34.92;;;;;;;;;;5052955;27;36818;-77
2021/07/11 00:22:49;;;;;;;53.33;33.05;;;;;;;;;;5050164;28;39433;-77
2021/07/11 00:25:15;;;;;;;53.17;34.28;;;;;;;;;;5046899;28;38461;-77
2021/07/11 00:27:42;;;;;;;61.95;37.42;;;;;;;;;;5051056;28;39196;-77
2021/07/11 00:30:10;;;;;;;54.47;34.65;;;;;;;;;;5046902;28;40254;-76
2021/07/11 00:32:39;;;;;;;52.70;34.97;;;;;;;;;;5048467;28;38016;-77
2021/07/11 00:35:06;;;;;;;54.42;36.05;;;;;;;;;;5046727;28;39635;-79
2021/07/11 00:37:32;;;;;;;70.68;41.47;;;;;;;;;;5051497;28;39647;-79
2021/07/11 00:39:59;;;;;;;56.60;36.38;;;;;;;;;;5050267;28;36863;-79
2021/07/11 00:42:25;;;;;;;58.00;37.20;;;;;;;;;;5052740;28;38631;-77
2021/07/11 00:44:52;;;;;;;68.13;40.28;;;;;;;;;;5037084;28;38533;-77
2021/07/11 00:47:19;;;;;;;85.88;45.53;;;;;;;;;;5045542;28;38696;-77
2021/07/11 00:49:46;;;;;;;67.25;40.80;;;;;;;;;;5055510;28;35979;-77
2021/07/11 00:52:13;;;;;;;51.60;34.08;;;;;;;;;;5036218;28;41581;-77
2021/07/11 00:54:39;;;;;;;70.35;41.92;;;;;;;;;;5046601;28;39257;-78
2021/07/11 00:57:08;;;;;;;55.22;36.92;;;;;;;;;;5037663;28;41624;-78
2021/07/11 00:59:35;;;;;;;52.30;35.90;;;;;;;;;;5055116;28;37511;-77
2021/07/11 01:02:07;;;;;;;55.88;35.83;;;;;;;;;;5055530;28;38824;-77
2021/07/11 01:04:47;;;;;;;53.97;34.72;;;;;;;;;;5055697;28;47709;-77
2021/07/11 01:07:19;;;;;;;59.72;38.38;;;;;;;;;;5056539;28;37499;-79
2021/07/11 01:09:47;;;;;;;49.13;34.97;;;;;;;;;;5057662;28;37152;-79
2021/07/11 01:12:25;;;;;;;58.35;37.38;;;;;;;;;;5054612;28;38581;-79
2021/07/11 01:14:52;;;;;;;55.95;37.28;;;;;;;;;;5053183;28;38721;-79
2021/07/11 01:17:21;;;;;;;45.50;32.33;;;;;;;;;;5054620;28;37858;-77
2021/07/11 01:19:47;;;;;;;44.70;32.53;;;;;;;;;;5056149;28;36664;-77
2021/07/11 01:22:14;;;;;;;48.53;33.40;;;;;;;;;;5050878;28;38613;-78
2021/07/11 01:24:51;;;;;;;49.50;35.17;;;;;;;;;;5058589;28;38516;-78
2021/07/11 01:27:18;;;;;;;52.17;34.65;;;;;;;;;;5060950;28;38891;-77
2021/07/11 01:29:46;;;;;;;50.83;34.25;;;;;;;;;;5060406;28;36457;-78
2021/07/11 01:32:13;;;;;;;50.53;34.85;;;;;;;;;;5054922;27;39027;-77
2021/07/11 01:34:40;;;;;;;50.60;32.80;;;;;;;;;;5058882;28;38475;-77
2021/07/11 01:37:06;;;;;;;45.90;33.00;;;;;;;;;;5054961;28;39047;-80
2021/07/11 01:39:32;;;;;;;52.05;35.17;;;;;;;;;;5051651;28;36610;-78
2021/07/11 01:41:59;;;;;;;47.90;35.33;;;;;;;;;;5052894;28;38070;-78
2021/07/11 01:44:28;;;;;;;54.83;37.33;;;;;;;;;;5051514;28;37544;-77
2021/07/11 01:46:54;;;;;;;48.50;35.53;;;;;;;;;;5042914;28;37589;-77
2021/07/11 01:49:21;;;;;;;44.05;31.75;;;;;;;;;;5051373;28;36932;-78
2021/07/11 01:51:48;;;;;;;51.55;35.10;;;;;;;;;;5050751;28;38745;-77
2021/07/11 01:54:15;;;;;;;45.97;34.15;;;;;;;;;;5052866;28;38571;-78
2021/07/11 01:56:42;;;;;;;55.83;36.85;;;;;;;;;;5050427;27;36167;-78
2021/07/11 01:59:09;;;;;;;70.45;42.63;;;;;;;;;;5046907;28;35723;-78
2021/07/11 02:01:36;;;;;;;61.30;39.65;;;;;;;;;;5048890;28;38630;-78
2021/07/11 02:04:02;;;;;;;64.70;41.22;;;;;;;;;;5049976;28;39435;-78
2021/07/11 02:06:29;;;;;;;60.00;39.88;;;;;;;;;;5046308;28;38286;-78
2021/07/11 02:08:55;;;;;;;71.90;46.60;;;;;;;;;;5049427;28;37215;-78
2021/07/11 02:11:24;;;;;;;60.65;39.70;;;;;;;;;;5051188;28;37243;-78
2021/07/11 02:13:52;;;;;;;78.10;47.20;;;;;;;;;;5050777;28;38957;-77
2021/07/11 02:16:21;;;;;;;65.28;43.38;;;;;;;;;;5040100;28;37061;-80
2021/07/11 02:18:49;;;;;;;63.30;43.78;;;;;;;;;;5046759;28;39357;-79
2021/07/11 02:21:19;;;;;;;65.28;43.00;;;;;;;;;;5049052;28;39769;-78
2021/07/11 02:23:45;;;;;;;54.35;39.78;;;;;;;;;;5047491;28;39095;-76
2021/07/11 02:26:11;;;;;;;56.40;41.33;;;;;;;;;;5048391;28;37657;-77
2021/07/11 02:28:38;;;;;;;67.10;45.10;;;;;;;;;;5041456;28;37901;-79
2021/07/11 02:31:11;;;;;;;61.15;42.63;;;;;;;;;;5054862;28;38820;-76
2021/07/11 02:33:37;;;;;;;;;;;;;;;;;;5054624;28;37362;-77
2021/07/11 02:36:05;;;;;;;81.28;48.22;;;;;;;;;;5053412;28;38560;-77
2021/07/11 02:38:52;;;;;;;59.17;40.80;;;;;;;;;;5045112;28;36895;-77
2021/07/11 02:41:19;;;;;;;69.63;45.05;;;;;;;;;;5049011;28;39858;-78
2021/07/11 02:43:47;;;;;;;65.13;43.63;;;;;;;;;;5042064;28;40442;-76
2021/07/11 02:46:17;;;;;;;134.95;62.03;;;;;;;;;;5049842;28;38002;-77
2021/07/11 02:48:44;;;;;;;56.47;40.38;;;;;;;;;;5055209;28;37386;-76
2021/07/11 02:51:12;;;;;;;61.60;41.83;;;;;;;;;;5052766;28;39441;-77
2021/07/11 02:53:38;;;;;;;63.78;42.20;;;;;;;;;;5052189;28;39294;-76
2021/07/11 02:56:06;;;;;;;68.03;44.75;;;;;;;;;;5043543;28;38900;-77
2021/07/11 02:58:38;;;;;;;68.70;43.88;;;;;;;;;;5048817;28;38054;-77
2021/07/11 03:01:05;;;;;;;67.72;43.67;;;;;;;;;;5046298;28;38464;-77
2021/07/11 03:03:31;;;;;;;74.30;46.15;;;;;;;;;;5048913;28;38103;-77
2021/07/11 03:05:58;;;;;;;77.28;47.60;;;;;;;;;;5047354;28;40047;-77
2021/07/11 03:08:24;;;;;;;83.70;49.47;;;;;;;;;;5047977;28;36393;-77
2021/07/11 03:10:50;;;;;;;75.05;45.83;;;;;;;;;;5052478;28;37836;-78
2021/07/11 03:13:17;;;;;;;68.82;46.80;;;;;;;;;;5051231;28;38477;-77
2021/07/11 03:15:44;;;;;;;76.05;47.90;;;;;;;;;;5048920;27;38104;-77
2021/07/11 03:18:11;;;;;;;65.57;44.17;;;;;;;;;;5046901;28;36049;-78
2021/07/11 03:20:37;;;;;;;87.97;52.33;;;;;;;;;;5047730;28;39414;-77
2021/07/11 03:23:04;;;;;;;69.03;45.28;;;;;;;;;;5052787;28;39274;-77
2021/07/11 03:25:31;;;;;;;86.20;51.58;;;;;;;;;;5054895;28;38638;-78
2021/07/11 03:28:00;;;;;;;75.68;48.78;;;;;;;;;;5050913;28;40115;-77
2021/07/11 03:30:35;;;;;;;70.10;44.78;;;;;;;;;;5045678;28;39759;-77
2021/07/11 03:33:03;;;;;;;63.08;42.80;;;;;;;;;;5049451;28;38366;-78
2021/07/11 03:35:33;;;;;;;70.38;44.40;;;;;;;;;;5047714;28;37877;-77
2021/07/11 03:38:00;;;;;;;68.22;44.38;;;;;;;;;;5049205;28;36429;-80
2021/07/11 03:40:29;;;;;;;63.78;42.63;;;;;;;;;;5045618;28;38918;-77
2021/07/11 03:42:59;;;;;;;60.30;39.92;;;;;;;;;;5047637;28;37123;-77
2021/07/11 03:45:26;;;;;;;65.63;41.75;;;;;;;;;;5044430;28;38642;-77
2021/07/11 03:47:56;;;;;;;66.25;42.47;;;;;;;;;;5050709;28;39776;-78
2021/07/11 03:50:24;;;;;;;60.35;40.83;;;;;;;;;;5051685;27;38585;-78
2021/07/11 03:52:53;;;;;;;66.95;42.92;;;;;;;;;;5062976;28;37037;-77
2021/07/11 03:55:19;;;;;;;54.40;38.63;;;;;;;;;;5044974;28;39260;-78
2021/07/11 03:57:47;;;;;;;67.00;43.35;;;;;;;;;;5048390;28;37488;-78
2021/07/11 04:00:20;;;;;;;57.58;40.25;;;;;;;;;;5043809;27;38271;-77
2021/07/11 04:02:48;;;;;;;54.97;39.15;;;;;;;;;;5063990;28;37603;-77
2021/07/11 04:05:15;;;;;;;65.75;41.80;;;;;;;;;;5047749;28;37016;-78
2021/07/11 04:07:42;;;;;;;75.00;46.45;;;;;;;;;;5049857;28;37084;-77
2021/07/11 04:10:10;;;;;;;70.75;43.35;;;;;;;;;;5054873;28;39425;-78
2021/07/11 04:12:38;;;;;;;69.63;44.13;;;;;;;;;;5056682;28;39013;-78
2021/07/11 04:15:05;;;;;;;81.05;48.13;;;;;;;;;;5050221;28;38821;-78
2021/07/11 04:17:36;;;;;;;77.03;46.67;;;;;;;;;;5051189;28;35911;-78
2021/07/11 04:20:03;;;;;;;79.43;46.78;;;;;;;;;;5047227;28;38927;-78
2021/07/11 04:22:32;;;;;;;59.25;40.20;;;;;;;;;;5048188;28;46530;-78
2021/07/11 04:24:59;;;;;;;72.45;43.28;;;;;;;;;;5047283;28;39141;-78
2021/07/11 04:27:26;;;;;;;60.67;39.00;;;;;;;;;;5047774;28;37364;-78
2021/07/11 04:29:52;;;;;;;56.50;38.70;;;;;;;;;;5045101;28;38437;-78
2021/07/11 04:32:19;;;;;;;63.75;42.80;;;;;;;;;;5048641;28;38366;-77
2021/07/11 04:34:45;;;;;;;66.13;41.92;;;;;;;;;;5051458;28;39258;-78
2021/07/11 04:37:12;;;;;;;61.38;41.60;;;;;;;;;;5047505;28;39185;-77
2021/07/11 04:39:39;;;;;;;68.97;43.35;;;;;;;;;;5046633;28;38646;-77
2021/07/11 04:42:05;;;;;;;53.70;37.38;;;;;;;;;;5037098;28;38327;-79
2021/07/11 04:44:32;;;;;;;50.53;37.70;;;;;;;;;;5038989;28;37685;-79
2021/07/11 04:46:59;;;;;;;66.90;42.70;;;;;;;;;;5047987;28;37912;-77
2021/07/11 04:49:25;;;;;;;56.95;37.67;;;;;;;;;;5046992;28;40012;-77
2021/07/11 04:51:53;;;;;;;69.88;42.22;;;;;;;;;;5045586;28;37611;-77
2021/07/11 04:54:19;;;;;;;52.25;36.53;;;;;;;;;;5037429;28;37026;-78
2021/07/11 04:56:46;;;;;;;48.95;37.15;;;;;;;;;;5037673;28;36678;-78
2021/07/11 04:59:12;;;;;;;46.50;34.45;;;;;;;;;;5048014;28;39306;-77
2021/07/11 05:01:39;;;;;;;48.97;35.75;;;;;;;;;;5050922;28;39453;-80
2021/07/11 05:04:05;;;;;;;48.13;35.00;;;;;;;;;;5041482;28;37498;-77
2021/07/11 05:06:32;;;;;;;50.50;36.05;;;;;;;;;;5050026;28;38445;-77
2021/07/11 05:08:59;;;;;;;42.17;32.08;;;;;;;;;;5055672;28;42440;-77
2021/07/11 05:11:26;;;;;;;46.15;31.50;;;;;;;;;;5048900;28;38930;-77
2021/07/11 05:13:52;;;;;;;50.08;35.22;;;;;;;;;;5050390;28;39108;-77
2021/07/11 05:16:22;;;;;;;48.15;34.20;;;;;;;;;;5051225;28;36541;-78
2021/07/11 05:18:48;;;;;;;42.55;32.22;;;;;;;;;;5058729;28;37571;-78
2021/07/11 05:21:15;;;;;;;46.28;33.97;;;;;;;;;;5053109;28;41406;-78
2021/07/11 05:23:41;;;;;;;50.95;34.95;;;;;;;;;;5048084;28;38569;-77
2021/07/11 05:26:08;;;;;;;46.78;34.30;;;;;;;;;;5048510;28;36472;-78
2021/07/11 05:28:34;;;;;;;43.20;31.35;;;;;;;;;;5050543;28;38738;-78
2021/07/11 05:31:01;;;;;;;47.08;34.47;;;;;;;;;;5055993;27;38192;-78
2021/07/11 05:33:27;;;;;;;52.10;35.67;;;;;;;;;;5053569;28;46773;-78
2021/07/11 05:35:54;;;;;;;55.55;35.45;;;;;;;;;;5054991;28;37954;-77
2021/07/11 05:38:20;;;;;;;49.67;33.72;;;;;;;;;;5049502;28;40464;-77
2021/07/11 05:40:46;;;;;;;52.25;35.67;;;;;;;;;;5050067;28;38513;-77
2021/07/11 05:43:13;;;;;;;51.17;35.75;;;;;;;;;;5049652;28;39737;-77
2021/07/11 05:45:39;;;;;;;50.25;35.25;;;;;;;;;;5052085;28;38612;-77
2021/07/11 05:48:06;;;;;;;52.53;34.25;;;;;;;;;;5049390;28;41013;-77
2021/07/11 05:50:34;;;;;;;42.30;31.60;;;;;;;;;;5050966;28;39244;-78
2021/07/11 05:53:01;;;;;;;55.75;34.38;;;;;;;;;;5050822;28;38404;-77
2021/07/11 05:55:27;;;;;;;50.88;34.15;;;;;;;;;;5050450;28;49084;-77
2021/07/11 05:57:54;;;;;;;43.10;31.52;;;;;;;;;;5063867;28;39905;-77
2021/07/11 06:00:20;;;;;;;49.03;33.60;;;;;;;;;;5047490;28;39538;-77
2021/07/11 06:02:46;;;;;;;44.33;31.02;;;;;;;;;;5049692;28;39606;-77
2021/07/11 06:05:13;;;;;;;42.33;31.10;;;;;;;;;;5047981;27;37232;-77
2021/07/11 06:07:39;;;;;;;48.90;31.05;;;;;;;;;;5051251;28;37666;-77
2021/07/11 06:10:06;;;;;;;43.60;30.55;;;;;;;;;;5049215;28;37327;-77
2021/07/11 06:12:33;;;;;;;49.13;34.45;;;;;;;;;;5049396;28;36964;-77
2021/07/11 06:15:00;;;;;;;42.72;29.10;;;;;;;;;;5049791;28;38122;-77
2021/07/11 06:17:26;;;;;;;44.28;31.23;;;;;;;;;;5046840;28;39081;-78
2021/07/11 06:19:53;;;;;;;37.45;28.40;;;;;;;;;;5049962;28;39014;-79
2021/07/11 06:22:19;;;;;;;39.35;27.70;;;;;;;;;;5047150;28;38283;-79
2021/07/11 06:24:46;;;;;;;38.08;28.38;;;;;;;;;;5045445;28;40417;-79
2021/07/11 06:27:12;;;;;;;38.45;28.58;;;;;;;;;;5049425;28;38147;-79
2021/07/11 06:29:38;;;;;;;32.95;25.90;;;;;;;;;;5046603;28;39468;-80
2021/07/11 06:32:05;;;;;;;36.17;25.92;;;;;;;;;;5056183;28;39250;-79
2021/07/11 06:34:31;;;;;;;34.10;25.33;;;;;;;;;;5058075;28;37768;-79
2021/07/11 06:36:58;;;;;;;35.47;26.05;;;;;;;;;;5054138;28;37774;-79
2021/07/11 06:39:24;;;;;;;47.78;32.28;;;;;;;;;;5056391;28;39697;-79
2021/07/11 06:41:50;;;;;;;37.95;26.85;;;;;;;;;;5054242;28;39975;-78
2021/07/11 06:44:17;;;;;;;39.05;28.95;;;;;;;;;;5053165;28;36706;-79
2021/07/11 06:46:43;;;;;;;36.60;26.02;;;;;;;;;;5054891;28;39429;-79
2021/07/11 06:49:10;;;;;;;50.15;32.83;;;;;;;;;;5052839;28;37928;-79
2021/07/11 06:51:36;;;;;;;42.67;29.67;;;;;;;;;;5052143;28;37026;-80
2021/07/11 06:54:03;;;;;;;45.83;29.95;;;;;;;;;;5053233;28;36881;-79
2021/07/11 06:56:29;;;;;;;40.53;28.60;;;;;;;;;;5054333;28;39459;-79
2021/07/11 06:58:56;;;;;;;47.33;30.30;;;;;;;;;;5055681;28;39322;-79
2021/07/11 07:01:23;;;;;;;45.28;29.80;;;;;;;;;;5057554;28;39033;-79
2021/07/11 07:03:49;;;;;;;44.50;30.83;;;;;;;;;;5055968;28;38387;-79
2021/07/11 07:06:16;;;;;;;51.20;32.72;;;;;;;;;;5051916;28;39922;-79
2021/07/11 07:08:42;;;;;;;42.92;28.77;;;;;;;;;;5055629;28;37955;-79
2021/07/11 07:11:09;;;;;;;40.00;29.50;;;;;;;;;;5053952;28;38548;-80
2021/07/11 07:13:36;;;;;;;38.50;26.98;;;;;;;;;;5046258;28;36361;-79
2021/07/11 07:16:02;;;;;;;36.15;27.00;;;;;;;;;;5061203;28;39307;-81
2021/07/11 07:18:28;;;;;;;35.17;25.52;;;;;;;;;;5056188;28;39363;-79
2021/07/11 07:20:55;;;;;;;34.47;26.05;;;;;;;;;;5055921;28;37064;-78
2021/07/11 07:23:21;;;;;;;40.25;28.20;;;;;;;;;;5063521;28;38444;-79
2021/07/11 07:25:47;;;;;;;31.40;24.58;;;;;;;;;;5073024;27;39058;-79
2021/07/11 07:28:14;;;;;;;33.38;26.00;;;;;;;;;;5065393;28;39167;-79
2021/07/11 07:30:40;;;;;;;33.85;26.05;;;;;;;;;;5062465;28;39220;-79
2021/07/11 07:33:06;;;;;;;29.48;22.90;;;;;;;;;;5063746;28;36941;-80
2021/07/11 07:35:33;;;;;;;29.45;23.17;;;;;;;;;;5058896;28;39639;-81
2021/07/11 07:37:59;;;;;;;28.42;21.92;;;;;;;;;;5059539;28;38797;-79
2021/07/11 07:40:26;;;;;;;27.15;20.50;;;;;;;;;;5050567;28;39324;-78
2021/07/11 07:42:52;;;;;;;28.20;22.20;;;;;;;;;;5044799;28;37504;-78
2021/07/11 07:45:19;;;;;;;32.50;23.13;;;;;;;;;;5051931;28;38482;-78
2021/07/11 07:47:46;;;;;;;28.25;21.70;;;;;;;;;;5051955;28;40662;-78
2021/07/11 07:50:13;;;;;;;30.35;21.20;;;;;;;;;;5051678;28;38440;-79
2021/07/11 07:52:40;;;;;;;27.70;21.95;;;;;;;;;;5055743;28;37236;-79
2021/07/11 07:55:06;;;;;;;30.13;22.48;;;;;;;;;;5048763;28;39637;-80
2021/07/11 07:57:33;;;;;;;29.75;23.33;;;;;;;;;;5054931;28;39333;-79
2021/07/11 07:59:59;;;;;;;30.27;22.83;;;;;;;;;;5057395;28;37861;-80
2021/07/11 08:02:26;;;;;;;33.53;25.38;;;;;;;;;;5055651;28;36865;-78
2021/07/11 08:04:52;;;;;;;28.55;22.30;;;;;;;;;;5054751;28;42516;-78
2021/07/11 08:07:24;;;;;;;25.85;19.80;;;;;;;;;;5052678;28;38131;-78
2021/07/11 08:09:51;;;;;;;29.38;23.25;;;;;;;;;;5049537;28;38182;-78
2021/07/11 08:12:18;;;;;;;30.23;23.25;;;;;;;;;;5055781;28;37611;-78
2021/07/11 08:14:45;;;;;;;29.35;23.20;;;;;;;;;;5060101;28;38295;-77
2021/07/11 08:17:11;;;;;;;30.48;23.98;;;;;;;;;;5061587;28;41233;-79
2021/07/11 08:19:43;;;;;;;28.17;22.40;;;;;;;;;;5059501;28;37864;-79
2021/07/11 08:22:16;;;;;;;29.08;21.65;;;;;;;;;;5055182;28;38322;-78
2021/07/11 08:24:42;;;;;;;28.10;21.63;;;;;;;;;;5049160;28;37900;-79
2021/07/11 08:27:12;;;;;;;28.27;22.27;;;;;;;;;;5055127;28;39547;-78
2021/07/11 08:29:38;;;;;;;26.45;21.23;;;;;;;;;;5060592;28;39440;-73
2021/07/11 08:32:05;;;;;;;23.88;18.35;;;;;;;;;;5058170;28;39957;-76
2021/07/11 08:34:31;;;;;;;21.95;17.63;;;;;;;;;;5060938;28;40337;-75
2021/07/11 08:37:00;;;;;;;23.48;18.58;;;;;;;;;;5040456;28;39602;-76
2021/07/11 08:39:29;;;;;;;21.45;18.05;;;;;;;;;;5058413;28;47772;-76
2021/07/11 08:41:57;;;;;;;24.50;18.80;;;;;;;;;;5060022;27;38119;-76
2021/07/11 08:44:24;;;;;;;24.33;18.65;;;;;;;;;;5064403;28;40166;-76
2021/07/11 08:46:50;;;;;;;26.90;21.40;;;;;;;;;;5060135;28;39532;-76
2021/07/11 08:49:17;;;;;;;27.58;22.58;;;;;;;;;;5066728;28;39079;-76
2021/07/11 08:51:44;;;;;;;25.65;21.27;;;;;;;;;;5058379;28;37045;-76
2021/07/11 08:54:11;;;;;;;22.08;18.17;;;;;;;;;;5059485;28;41061;-77
2021/07/11 08:56:37;;;;;;;29.45;22.25;;;;;;;;;;5061712;28;38956;-76
2021/07/11 08:59:04;;;;;;;25.52;21.20;;;;;;;;;;5047473;28;38592;-76
2021/07/11 09:01:30;;;;;;;30.05;19.77;;;;;;;;;;5066366;28;38124;-76
2021/07/11 09:03:59;;;;;;;30.15;24.40;;;;;;;;;;5065062;28;38978;-77
2021/07/11 09:06:26;;;;;;;24.77;20.63;;;;;;;;;;5054598;28;38951;-77
2021/07/11 09:08:57;;;;;;;26.80;22.00;;;;;;;;;;5053499;28;38519;-78
2021/07/11 09:11:23;;;;;;;25.85;20.35;;;;;;;;;;5064460;28;37862;-78
2021/07/11 09:13:52;;;;;;;22.38;17.55;;;;;;;;;;5054218;28;38983;-77
2021/07/11 09:16:18;;;;;;;20.80;17.00;;;;;;;;;;5058801;28;38304;-77
2021/07/11 09:18:44;;;;;;;18.58;15.60;;;;;;;;;;5064102;28;38706;-77
2021/07/11 09:21:11;;;;;;;16.90;14.63;;;;;;;;;;5073442;28;36622;-79
2021/07/11 09:23:38;;;;;;;13.80;11.70;;;;;;;;;;5067781;28;39092;-78
2021/07/11 09:26:08;;;;;;;11.98;10.57;;;;;;;;;;5072034;28;37421;-78
2021/07/11 09:28:36;;;;;;;9.15;6.82;;;;;;;;;;5066735;28;38867;-78
2021/07/11 09:31:07;;;;;;;9.80;7.78;;;;;;;;;;5053566;28;37085;-78
2021/07/11 09:33:34;;;;;;;8.40;7.20;;;;;;;;;;5066868;28;39763;-77
2021/07/11 09:36:05;;;;;;;8.70;6.85;;;;;;;;;;5068404;28;39580;-77
2021/07/11 09:38:31;;;;;;;9.75;8.65;;;;;;;;;;5058603;28;48588;-78
2021/07/11 09:40:57;;;;;;;12.70;11.10;;;;;;;;;;5061175;28;36456;-77
2021/07/11 09:43:24;;;;;;;12.73;11.15;;;;;;;;;;5061281;28;39400;-77
2021/07/11 09:45:50;;;;;;;18.70;12.38;;;;;;;;;;5058283;28;38979;-77
2021/07/11 09:48:17;;;;;;;15.20;12.65;;;;;;;;;;5053364;28;39450;-78
2021/07/11 09:50:43;;;;;;;14.82;11.75;;;;;;;;;;5054617;28;37858;-78
2021/07/11 09:53:12;;;;;;;14.07;11.73;;;;;;;;;;5048284;28;39689;-78
2021/07/11 09:55:38;;;;;;;13.70;9.77;;;;;;;;;;5055890;28;40525;-77
2021/07/11 09:58:06;;;;;;;14.73;11.55;;;;;;;;;;5058711;28;39356;-77
2021/07/11 10:00:39;;;;;;;12.70;11.38;;;;;;;;;;5054327;28;37249;-78
2021/07/11 10:03:07;;;;;;;12.25;10.63;;;;;;;;;;5062429;28;37931;-78
2021/07/11 10:05:34;;;;;;;12.40;10.13;;;;;;;;;;5062865;28;38442;-78
2021/07/11 10:08:01;;;;;;;10.48;8.15;;;;;;;;;;5065693;28;39271;-78
2021/07/11 10:10:29;;;;;;;10.85;8.52;;;;;;;;;;5056360;28;47487;-77
2021/07/11 10:12:57;;;;;;;8.40;7.22;;;;;;;;;;5063969;28;38321;-77
2021/07/11 10:15:25;;;;;;;10.07;8.43;;;;;;;;;;5062963;28;39262;-77
2021/07/11 10:17:58;;;;;;;14.73;9.73;;;;;;;;;;5066646;28;40847;-79
2021/07/11 10:20:32;;;;;;;11.10;9.88;;;;;;;;;;5061513;28;37980;-79
2021/07/11 10:22:59;;;;;;;11.32;8.73;;;;;;;;;;5073774;28;38248;-80
2021/07/11 10:25:26;;;;;;;10.80;8.25;;;;;;;;;;5065048;28;38529;-80
2021/07/11 10:28:07;;;;;;;14.02;8.32;;;;;;;;;;5065355;28;38315;-79
2021/07/11 10:30:34;;;;;;;8.77;6.95;;;;;;;;;;5058658;28;49919;-79
2021/07/11 10:33:08;;;;;;;8.40;6.63;;;;;;;;;;5068075;28;39181;-79
2021/07/11 10:35:34;;;;;;;8.32;6.82;;;;;;;;;;5062838;28;47364;-78
2021/07/11 10:38:01;;;;;;;8.18;6.63;;;;;;;;;;5066915;28;38258;-79
2021/07/11 10:40:31;;;;;;;11.57;7.25;;;;;;;;;;5058684;27;48646;-79
2021/07/11 10:42:58;;;;;;;8.02;6.95;;;;;;;;;;5057175;28;40252;-78
2021/07/11 10:45:24;;;;;;;6.50;5.60;;;;;;;;;;5061026;28;36742;-79
2021/07/11 10:47:51;;;;;;;6.80;6.05;;;;;;;;;;5066865;28;37566;-79
2021/07/11 10:50:23;;;;;;;5.95;4.95;;;;;;;;;;5051645;28;36367;-79
2021/07/11 10:52:50;;;;;;;6.93;5.07;;;;;;;;;;5062335;28;39614;-78
2021/07/11 10:55:17;;;;;;;7.03;5.00;;;;;;;;;;5066364;27;39224;-78
2021/07/11 10:57:45;;;;;;;6.53;5.82;;;;;;;;;;5050121;28;37761;-79
2021/07/11 11:00:13;;;;;;;6.78;5.78;;;;;;;;;;5045190;28;37166;-78
2021/07/11 11:02:40;;;;;;;5.00;4.50;;;;;;;;;;5053335;28;40141;-79
2021/07/11 11:05:11;;;;;;;5.53;4.32;;;;;;;;;;5048181;28;37878;-77
2021/07/11 11:07:53;;;;;;;5.85;5.28;;;;;;;;;;5051449;28;47509;-78
2021/07/11 11:10:25;;;;;;;6.68;5.82;;;;;;;;;;5059737;28;37508;-76
2021/07/11 11:13:09;;;;;;;6.35;4.78;;;;;;;;;;5055056;28;38794;-77
2021/07/11 11:15:45;;;;;;;6.47;5.63;;;;;;;;;;5046513;28;48084;-77
2021/07/11 11:18:16;;;;;;;5.15;4.57;;;;;;;;;;5063615;28;37488;-77
2021/07/11 11:20:42;;;;;;;5.88;4.97;;;;;;;;;;5046858;28;37390;-78
2021/07/11 11:23:11;;;;;;;5.20;4.57;;;;;;;;;;5046242;28;20045;-77
2021/07/11 11:25:38;;;;;;;4.88;4.47;;;;;;;;;;5047296;28;40943;-77
2021/07/11 11:28:05;;;;;;;4.88;3.80;;;;;;;;;;5055903;27;38312;-78
2021/07/11 11:30:31;;;;;;;4.47;3.95;;;;;;;;;;5055631;28;37829;-77
2021/07/11 11:32:58;;;;;;;5.10;4.15;;;;;;;;;;5045077;28;38012;-77
2021/07/11 11:35:27;;;;;;;6.30;4.57;;;;;;;;;;5047103;28;39635;-78
2021/07/11 11:37:54;;;;;;;4.45;4.05;;;;;;;;;;5048146;28;38858;-77
2021/07/11 11:40:22;;;;;;;5.28;3.75;;;;;;;;;;5049607;27;38408;-78
2021/07/11 11:42:49;;;;;;;3.50;3.20;;;;;;;;;;5052552;28;38538;-78
2021/07/11 11:45:19;;;;;;;3.40;3.00;;;;;;;;;;5049017;28;41737;-78
2021/07/11 11:47:57;;;;;;;4.63;3.47;;;;;;;;;;5051073;28;38659;-78
2021/07/11 11:50:26;;;;;;;2.67;2.45;;;;;;;;;;5049873;28;37948;-78
2021/07/11 11:53:02;;;;;;;2.97;2.50;;;;;;;;;;5054596;28;40297;-79
2021/07/11 11:55:29;;;;;;;6.97;2.38;;;;;;;;;;5060212;28;47198;-79
2021/07/11 11:58:02;;;;;;;2.38;2.03;;;;;;;;;;5061765;28;37158;-78
2021/07/11 12:00:28;;;;;;;4.35;2.47;;;;;;;;;;5058563;28;48995;-77
2021/07/11 12:02:59;;;;;;;3.28;2.35;;;;;;;;;;5047688;28;38795;-78
2021/07/11 12:05:28;;;;;;;3.22;2.20;;;;;;;;;;5063533;27;39315;-79
2021/07/11 12:07:56;;;;;;;1.80;1.70;;;;;;;;;;5063379;28;39110;-78
2021/07/11 12:10:23;;;;;;;2.20;1.27;;;;;;;;;;5045843;28;36868;-77
2021/07/11 12:13:04;;;;;;;2.40;1.52;;;;;;;;;;5046018;28;39628;-78
2021/07/11 12:15:35;;;;;;;2.67;1.80;;;;;;;;;;5053330;27;48769;-77
2021/07/11 12:18:11;;;;;;;2.60;1.95;;;;;;;;;;5064354;28;39210;-78
2021/07/11 12:20:50;;;;;;;2.80;2.42;;;;;;;;;;5043174;28;38803;-78
2021/07/11 12:23:16;;;;;;;3.38;2.33;;;;;;;;;;5046733;28;39617;-80
2021/07/11 12:25:44;;;;;;;3.47;2.45;;;;;;;;;;5050412;28;41731;-78
2021/07/11 12:28:13;;;;;;;5.35;2.72;;;;;;;;;;5044527;28;38027;-78
2021/07/11 12:30:50;;;;;;;5.25;2.83;;;;;;;;;;5059492;28;38464;-80
2021/07/11 12:33:26;;;;;;;3.67;2.90;;;;;;;;;;5057714;28;39589;-78
2021/07/11 12:35:58;;;;;;;3.15;2.67;;;;;;;;;;5056194;28;41095;-78
2021/07/11 12:38:34;;;;;;;4.25;3.45;;;;;;;;;;5051111;28;38103;-80
2021/07/11 12:41:02;;;;;;;3.75;2.70;;;;;;;;;;5049786;28;36151;-80
2021/07/11 12:43:30;;;;;;;3.80;2.85;;;;;;;;;;5054892;28;48006;-78
2021/07/11 12:46:07;;;;;;;3.80;2.92;;;;;;;;;;5059722;28;38353;-77
2021/07/11 12:48:37;;;;;;;3.90;3.50;;;;;;;;;;5054593;28;47266;-79
2021/07/11 12:51:14;;;;;;;4.40;3.60;;;;;;;;;;5050834;28;36362;-78
2021/07/11 12:53:41;;;;;;;4.80;4.25;;;;;;;;;;5061361;28;37677;-78
2021/07/11 12:56:08;;;;;;;4.80;4.13;;;;;;;;;;5058982;28;37399;-78
2021/07/11 12:58:42;;;;;;;4.10;3.70;;;;;;;;;;5051266;28;38141;-78
2021/07/11 13:01:08;;;;;;;8.25;4.10;;;;;;;;;;5046447;28;35918;-78
2021/07/11 13:03:35;;;;;;;4.65;3.78;;;;;;;;;;5050104;28;40292;-77
2021/07/11 13:06:01;;;;;;;6.18;3.35;;;;;;;;;;5054962;28;37094;-78
2021/07/11 13:08:28;;;;;;;5.43;4.40;;;;;;;;;;5062267;28;47182;-77
2021/07/11 13:10:54;;;;;;;5.95;3.47;;;;;;;;;;5049740;28;36682;-76
2021/07/11 13:13:21;;;;;;;3.65;3.10;;;;;;;;;;5053225;28;40225;-79
2021/07/11 13:15:48;;;;;;;3.40;3.10;;;;;;;;;;5062108;28;39432;-76
2021/07/11 13:18:15;;;;;;;5.63;3.85;;;;;;;;;;5063171;28;37622;-77
2021/07/11 13:20:42;;;;;;;3.90;3.30;;;;;;;;;;5069955;28;39853;-77
2021/07/11 13:23:09;;;;;;;3.10;2.80;;;;;;;;;;5080531;28;40153;-79
2021/07/11 13:25:36;;;;;;;3.33;3.03;;;;;;;;;;5069829;28;39026;-80
2021/07/11 13:28:03;;;;;;;4.40;3.15;;;;;;;;;;5061444;28;40139;-79
2021/07/11 13:30:32;;;;;;;3.50;3.10;;;;;;;;;;5049061;28;33871;-79
2021/07/11 13:32:59;;;;;;;2.28;2.08;;;;;;;;;;5065297;28;37951;-77
2021/07/11 13:35:26;;;;;;;3.10;2.50;;;;;;;;;;5085083;27;39577;-79
2021/07/11 13:37:53;;;;;;;3.15;2.38;;;;;;;;;;5074384;28;38642;-79
2021/07/11 13:40:21;;;;;;;2.67;2.40;;;;;;;;;;5066445;28;35595;-79
2021/07/11 13:42:48;;;;;;;2.40;2.20;;;;;;;;;;5064825;28;38628;-79
2021/07/11 13:45:17;;;;;;;4.50;3.00;;;;;;;;;;5062886;28;38144;-79
2021/07/11 13:47:43;;;;;;;4.10;3.22;;;;;;;;;;5063617;28;35841;-76
2021/07/11 13:50:11;;;;;;;4.20;3.30;;;;;;;;;;5056783;28;35974;-77
2021/07/11 13:52:38;;;;;;;5.07;3.53;;;;;;;;;;5059662;28;39259;-78
2021/07/11 13:55:05;;;;;;;3.97;3.33;;;;;;;;;;5059297;28;38765;-80
2021/07/11 13:57:31;;;;;;;5.45;4.35;;;;;;;;;;5070849;28;38138;-79
2021/07/11 13:59:59;;;;;;;5.47;4.70;;;;;;;;;;5087003;28;37007;-79
2021/07/11 14:02:26;;;;;;;5.60;3.95;;;;;;;;;;5083486;28;40258;-81
2021/07/11 14:04:53;;;;;;;6.15;5.40;;;;;;;;;;5086237;28;37700;-80
2021/07/11 14:07:21;;;;;;;5.97;5.38;;;;;;;;;;5080803;28;38139;-80
2021/07/11 14:09:47;;;;;;;5.75;4.88;;;;;;;;;;5074013;28;39215;-80
2021/07/11 14:12:14;;;;;;;5.68;4.80;;;;;;;;;;5058124;28;39014;-77
2021/07/11 14:14:40;;;;;;;3.53;3.22;;;;;;;;;;5054092;28;38679;-76
2021/07/11 14:17:07;;;;;;;4.20;3.80;;;;;;;;;;5061652;28;38593;-78
2021/07/11 14:19:33;;;;;;;4.38;3.13;;;;;;;;;;5065276;28;36820;-81
2021/07/11 14:22:00;;;;;;;3.30;3.00;;;;;;;;;;5061755;28;38609;-79
2021/07/11 14:24:27;;;;;;;4.90;3.10;;;;;;;;;;5065610;28;38097;-79
2021/07/11 14:26:54;;;;;;;3.50;3.20;;;;;;;;;;5067428;28;39165;-78
2021/07/11 14:29:21;;;;;;;2.50;2.30;;;;;;;;;;5055926;28;37241;-78